Rankings de siempre
Mejores tiempos personales válidos de atleta a través de todos los eventos y temporadas. Cada atleta aparece una vez por división.
Busca por nombre y abre la página donde está clasificado este récord de división.
32,082 atletas clasificados
Los finishers de HYROX ELITE 15 se rastrean por separado — ver la clasificación Elite.
| Pos. | Pos. AG | Atleta | Nacionalidad | Categoría de edad | TiempoMejor tiempo | Diferencia |
|---|---|---|---|---|---|---|
| 9276 | #385 | Joël RicaudFRA · M 45-49 · AG #385 | FRA | M 45-49 | 1:16:47 | +23:32 |
| 9277 | #3174 | Adewale OyewoleGBR · M 30-34 · AG #3174 | GBR | M 30-34 | 1:16:47 | +23:32 |
| 9278 | #3172 | Federico MelideoITA · M 30-34 · AG #3172 | ITA | M 30-34 | 1:16:47 | +23:32 |
| 9279 | #3176 | Quentin DernoncourtFRA · M 30-34 · AG #3176 | FRA | M 30-34 | 1:16:47 | +23:32 |
| 9280 | #2504 | Lewis ObbardGBR · M 25-29 · AG #2504 | GBR | M 25-29 | 1:16:47 | +23:32 |
| 9281 | #3178 | Damien RenaudetFRA · M 30-34 · AG #3178 | FRA | M 30-34 | 1:16:48 | +23:33 |
| 9282 | #2025 | Kevin NoreuilFRA · M 35-39 · AG #2025 | FRA | M 35-39 | 1:16:48 | +23:33 |
| 9283 | #2506 | Eduardo PacienciaBRA · M 25-29 · AG #2506 | BRA | M 25-29 | 1:16:48 | +23:33 |
| 9284 | #2507 | Roman SchadtGER · M 25-29 · AG #2507 | GER | M 25-29 | 1:16:48 | +23:33 |
| 9285 | #2030 | José Luis OpazoESP · M 35-39 · AG #2030 | ESP | M 35-39 | 1:16:48 | +23:33 |
| 9286 | #2029 | Ryan CoxGBR · M 35-39 · AG #2029 | GBR | M 35-39 | 1:16:48 | +23:33 |
| 9287 | #3179 | Max VilaFRA · M 30-34 · AG #3179 | FRA | M 30-34 | 1:16:48 | +23:33 |
| 9288 | #2028 | Callum GarveyGBR · M 35-39 · AG #2028 | GBR | M 35-39 | 1:16:48 | +23:33 |
| 9289 | #987 | Dylan CrutchfieldUSA · M 16-24 · AG #987 | USA | M 16-24 | 1:16:48 | +23:33 |
| 9290 | #3177 | Daniel SeteckiGER · M 30-34 · AG #3177 | GER | M 30-34 | 1:16:48 | +23:33 |
| 9291 | #386 | Dimitri MartinsBEL · M 45-49 · AG #386 | BEL | M 45-49 | 1:16:48 | +23:33 |
| 9292 | #954 | DJ MilkshakeRSA · M 40-44 · AG #954 | RSA | M 40-44 | 1:16:48 | +23:33 |
| 9293 | #2026 | Tiago RamosPOR · M 35-39 · AG #2026 | POR | M 35-39 | 1:16:48 | +23:33 |
| 9294 | #387 | martins dimitiriBEL · M 45-49 · AG #387 | BEL | M 45-49 | 1:16:48 | +23:33 |
| 9295 | #3180 | Ben AveryGBR · M 30-34 · AG #3180 | GBR | M 30-34 | 1:16:48 | +23:33 |
| 9296 | #2031 | Stefan MaertenNED · M 35-39 · AG #2031 | NED | M 35-39 | 1:16:49 | +23:34 |
| 9297 | #2034 | Luke WilsonGBR · M 35-39 · AG #2034 | GBR | M 35-39 | 1:16:49 | +23:34 |
| 9298 | #955 | Florian PfisterGER · M 40-44 · AG #955 | GER | M 40-44 | 1:16:49 | +23:34 |
| 9299 | #2035 | John SowlerGBR · M 35-39 · AG #2035 | GBR | M 35-39 | 1:16:49 | +23:34 |
| 9300 | #3181 | Roberts NeretnieksLAT · M 30-34 · AG #3181 | LAT | M 30-34 | 1:16:49 | +23:34 |
Página 372 de 1,284